Language selection

Features

My Weather Profile Weather Topics  | 

Atlantic - Newfoundland: Past 24 Hour Conditions

 

Cartwright Airport

07:00 PM AST 20 January 2020
Disclaimer

This table is a summary of hourly weather conditions for the past 24 hours.
Please note that these observations might not always be representative of weather conditions over their associated marine area.

Date / Time
(AST)
Wind(knots) Conditions Visibility(km) Pressure(kPa) Air tempC) Relative humidity(%) Dew pointC) Wind Chill
20 January 2020
19:00 NW 7 Clear 16 100.7 -18 59 -24 -26
18:00 NNW 5 Clear 16 100.6 -18 59 -24 -24
17:00 NNW 7 Clear 16 100.6 -17 61 -23 -25
16:00 N 2 Sunny 16 100.5 -16 58 -23 -19
15:00 NE 2 Sunny 16 100.4 -16 52 -24 -19
14:00 ENE 2 Sunny 16 100.4 -17 56 -23 -20
13:00 WSW 2 Sunny 16 100.4 -17 58 -24 -20
12:00 WSW 3 Sunny 16 100.5 -18 60 -24 -22
11:00 SW 5 Sunny 16 100.6 -19 65 -24 -26
10:00 WSW 8 Sunny 16 100.7 -20 67 -24 -29
9:00 SSW 6 Mainly Sunny 16 100.7 -21 73 -25 -29
8:00 SSW 5 Mostly Cloudy 16 100.7 -21 76 -25 -28
7:00 SSW 5 Partly Cloudy 16 100.8 -21 73 -25 -28
6:00 SSW 3 Cloudy 16 100.8 -20 73 -24 -25
5:00 SSW 5 Cloudy 16 100.9 -21 71 -25 -27
4:00 SSW 5 Cloudy 16 100.9 -21 71 -25 -28
3:00 SSW 5 Cloudy 16 101.0 -21 70 -25 -28
2:00 SSW 6 Mainly Clear 16 101.0 -21 70 -25 -29
1:00 SSW 7 Clear 16 101.1 -20 65 -25 -28
0:00 SSW 8 Partly Cloudy 16 101.1 -19 63 -25 -28
19 January 2020
23:00 SSW 9 Mostly Cloudy 16 101.2 -19 63 -25 -29
22:00 S 9 Clear 16 101.2 -19 60 -25 -28
21:00 SSW 10 gust 17 Mostly Cloudy 16 101.3 -18 58 -24 -27
20:00 SSW 10 gust 16 Clear 16 101.3 -18 57 -24 -27
19:00 SSW 8 Clear 16 101.3 -18 58 -24 -26

Zoom-in to make a selection

Map of Atlantic - Newfoundland marine weather areas Banquereau - 44139 Blanc-Sablon Airport Cap Whittle Chevery Natashquan Airport Heath Point Îles de la Madeleine Airport Miscou Island Eskasoni (First Nations) Grand Étang Ingonish Beach North Mountain St.Paul Island J.A. Douglas McCurdy Sydney Airport Charlottetown Airport East Point North Cape Argentia Bonavista Burgeo Cape Race Corner Brook Daniel's Harbour Englee Ferolle Point La Scie Port aux Basques Rocky Harbour Sagona Island St. Anthony Airport St. John's Int'l Airport St. Lawrence Stephenville Airport Twillingate Winterland Branch Hill Wreckhouse Grates Cove Pool's Island Marticot Island Long Pond Cartwright Airport Mary's Harbour
Legend:
buoy Buoy
land station Land Station

Atlantic - Newfoundland Area

Another Region

What we are doing

Date modified: